Time;durP1;ratioP1;P1;durP2;ratioP2;P2;SDS_P1;SDS_P2;PMS_P1;PMS_P2;Temp;Humidity;BMP_temperature;BMP_pressure;BME280_temperature;BME280_humidity;BME280_pressure;Samples;Min_cycle;Max_cycle;Signal;HPM_P1;HPM_P2
2021/10/20 00:02:11;;;;;;;0.00;0.00;;;;;;;;;;5034209;28;20026;-84
2021/10/20 00:04:37;;;;;;;0.00;0.00;;;;;;;;;;5034307;28;20373;-83
2021/10/20 00:07:02;;;;;;;22.20;1.55;;;;;;;;;;5034119;28;20029;-84
2021/10/20 00:09:27;;;;;;;0.13;0.13;;;;;;;;;;5034280;28;20044;-84
2021/10/20 00:11:53;;;;;;;3.92;0.80;;;;;;;;;;5033950;28;20389;-83
2021/10/20 00:14:18;;;;;;;0.55;0.55;;;;;;;;;;5033940;28;20037;-83
2021/10/20 00:16:43;;;;;;;0.10;0.10;;;;;;;;;;5034225;28;20385;-83
2021/10/20 00:19:10;;;;;;;0.00;0.00;;;;;;;;;;5033639;28;20057;-83
2021/10/20 00:21:35;;;;;;;0.10;0.10;;;;;;;;;;5033827;28;20024;-83
2021/10/20 00:24:00;;;;;;;7.18;0.75;;;;;;;;;;5033792;28;20037;-83
2021/10/20 00:26:26;;;;;;;0.00;0.00;;;;;;;;;;5033574;28;20041;-83
2021/10/20 00:28:52;;;;;;;0.00;0.00;;;;;;;;;;5032909;28;20104;-83
2021/10/20 00:31:17;;;;;;;0.00;0.00;;;;;;;;;;5033515;28;20056;-83
2021/10/20 00:33:42;;;;;;;0.00;0.00;;;;;;;;;;5033577;28;20076;-83
2021/10/20 00:36:07;;;;;;;0.28;0.10;;;;;;;;;;5033734;28;20022;-83
2021/10/20 00:38:33;;;;;;;0.43;0.43;;;;;;;;;;5033288;28;20029;-83
2021/10/20 00:40:58;;;;;;;0.20;0.13;;;;;;;;;;5033324;28;20037;-84
2021/10/20 00:43:24;;;;;;;0.88;0.52;;;;;;;;;;5033509;28;20022;-84
2021/10/20 00:45:50;;;;;;;0.00;0.00;;;;;;;;;;5033098;28;20485;-83
2021/10/20 00:48:15;;;;;;;1.38;0.52;;;;;;;;;;5033577;28;20030;-83
2021/10/20 00:50:41;;;;;;;0.00;0.00;;;;;;;;;;5033306;28;20515;-83
2021/10/20 00:53:06;;;;;;;0.00;0.00;;;;;;;;;;5033383;28;20388;-83
2021/10/20 00:55:31;;;;;;;0.00;0.00;;;;;;;;;;5033507;28;20056;-83
2021/10/20 00:57:57;;;;;;;0.28;0.25;;;;;;;;;;5033276;28;20028;-84
2021/10/20 01:00:22;;;;;;;0.43;0.43;;;;;;;;;;5033328;28;20033;-83
2021/10/20 01:02:47;;;;;;;0.10;0.10;;;;;;;;;;5033312;28;20036;-83
2021/10/20 01:05:13;;;;;;;0.05;0.05;;;;;;;;;;5033358;28;20022;-84
2021/10/20 01:07:39;;;;;;;0.15;0.15;;;;;;;;;;5019343;28;20037;-83
2021/10/20 01:10:05;;;;;;;1.33;0.38;;;;;;;;;;5012996;28;20045;-84
2021/10/20 01:12:30;;;;;;;0.25;0.25;;;;;;;;;;5013448;28;20057;-83
2021/10/20 01:14:55;;;;;;;0.32;0.22;;;;;;;;;;5013407;28;20030;-83
2021/10/20 01:17:21;;;;;;;0.63;0.22;;;;;;;;;;5013435;28;20414;-83
2021/10/20 01:19:47;;;;;;;0.00;0.00;;;;;;;;;;5013403;28;20418;-83
2021/10/20 01:22:12;;;;;;;0.10;0.10;;;;;;;;;;5013420;28;20521;-83
2021/10/20 01:24:38;;;;;;;0.08;0.08;;;;;;;;;;5013640;28;20478;-83
2021/10/20 01:27:04;;;;;;;0.00;0.00;;;;;;;;;;5013741;28;20434;-83
2021/10/20 01:29:29;;;;;;;0.00;0.00;;;;;;;;;;5013363;28;20061;-83
2021/10/20 01:31:56;;;;;;;0.15;0.15;;;;;;;;;;5013323;28;20084;-84
2021/10/20 01:34:21;;;;;;;0.00;0.00;;;;;;;;;;5013297;28;20132;-83
2021/10/20 01:36:48;;;;;;;0.10;0.10;;;;;;;;;;5013685;28;20092;-84
2021/10/20 01:39:13;;;;;;;0.57;0.47;;;;;;;;;;5013335;28;20030;-84
2021/10/20 01:41:39;;;;;;;1.08;0.68;;;;;;;;;;5016214;28;20029;-84
2021/10/20 01:44:04;;;;;;;0.00;0.00;;;;;;;;;;4999308;28;20384;-84
2021/10/20 01:46:30;;;;;;;6.03;1.15;;;;;;;;;;5017008;28;20057;-83
2021/10/20 01:48:55;;;;;;;0.35;0.35;;;;;;;;;;5016976;28;20021;-84
2021/10/20 01:51:20;;;;;;;0.00;0.00;;;;;;;;;;5016970;28;20033;-83
2021/10/20 01:53:46;;;;;;;0.15;0.15;;;;;;;;;;5016649;28;20050;-84
2021/10/20 01:56:12;;;;;;;0.55;0.55;;;;;;;;;;5016798;28;20105;-84
2021/10/20 01:58:37;;;;;;;0.13;0.13;;;;;;;;;;5016705;28;20117;-83
2021/10/20 02:01:07;;;;;;;3.45;0.50;;;;;;;;;;5016626;28;20497;-83
2021/10/20 02:03:33;;;;;;;0.00;0.00;;;;;;;;;;5016635;28;20034;-83
2021/10/20 02:05:58;;;;;;;0.00;0.00;;;;;;;;;;5016375;28;20033;-83
2021/10/20 02:08:24;;;;;;;0.45;0.45;;;;;;;;;;5016728;28;20038;-83
2021/10/20 02:10:49;;;;;;;1.13;0.95;;;;;;;;;;5016461;28;20018;-83
2021/10/20 02:13:15;;;;;;;0.32;0.20;;;;;;;;;;5016114;28;20041;-83
2021/10/20 02:15:40;;;;;;;0.10;0.10;;;;;;;;;;5016485;28;20096;-83
2021/10/20 02:18:06;;;;;;;0.45;0.45;;;;;;;;;;5016456;28;20022;-82
2021/10/20 02:20:31;;;;;;;0.80;0.80;;;;;;;;;;5016722;28;20040;-82
2021/10/20 02:22:56;;;;;;;0.05;0.05;;;;;;;;;;5016243;28;20041;-83
2021/10/20 02:25:22;;;;;;;0.70;0.70;;;;;;;;;;5016091;28;20018;-82
2021/10/20 02:27:48;;;;;;;0.00;0.00;;;;;;;;;;5016194;28;20045;-82
2021/10/20 02:30:14;;;;;;;0.55;0.55;;;;;;;;;;5016327;28;20038;-82
2021/10/20 02:32:39;;;;;;;0.55;0.50;;;;;;;;;;5016095;28;20454;-82
2021/10/20 02:35:05;;;;;;;1.30;0.70;;;;;;;;;;5015773;28;20076;-83
2021/10/20 02:37:30;;;;;;;0.32;0.32;;;;;;;;;;5016069;28;20468;-83
2021/10/20 02:39:56;;;;;;;0.70;0.40;;;;;;;;;;5015953;28;20093;-83
2021/10/20 02:42:21;;;;;;;0.00;0.00;;;;;;;;;;5015927;28;20030;-83
2021/10/20 02:44:46;;;;;;;0.10;0.10;;;;;;;;;;5015929;28;20434;-83
2021/10/20 02:47:12;;;;;;;0.17;0.17;;;;;;;;;;5016112;28;20045;-83
2021/10/20 02:49:37;;;;;;;0.20;0.20;;;;;;;;;;5016116;28;20030;-83
2021/10/20 02:52:02;;;;;;;0.15;0.15;;;;;;;;;;5014916;28;20382;-83
2021/10/20 02:54:28;;;;;;;0.00;0.00;;;;;;;;;;5015698;28;20471;-83
2021/10/20 02:56:53;;;;;;;0.10;0.10;;;;;;;;;;5015639;28;20026;-83
2021/10/20 02:59:18;;;;;;;0.00;0.00;;;;;;;;;;5015624;28;20386;-83
2021/10/20 03:01:44;;;;;;;0.00;0.00;;;;;;;;;;4997809;28;20068;-83
2021/10/20 03:04:09;;;;;;;0.00;0.00;;;;;;;;;;5015497;28;20026;-83
2021/10/20 03:06:34;;;;;;;0.20;0.20;;;;;;;;;;4998055;28;20029;-83
2021/10/20 03:08:59;;;;;;;0.10;0.10;;;;;;;;;;5015434;28;20465;-83
2021/10/20 03:11:25;;;;;;;5.13;1.00;;;;;;;;;;5014987;28;20034;-83
2021/10/20 03:13:50;;;;;;;0.00;0.00;;;;;;;;;;5015230;28;20057;-83
2021/10/20 03:16:16;;;;;;;0.17;0.17;;;;;;;;;;5015518;28;20065;-83
2021/10/20 03:18:41;;;;;;;0.10;0.10;;;;;;;;;;5015317;28;20026;-83
2021/10/20 03:21:07;;;;;;;0.00;0.00;;;;;;;;;;5015261;28;20045;-83
2021/10/20 03:23:32;;;;;;;0.65;0.65;;;;;;;;;;5015186;28;20026;-83
2021/10/20 03:25:57;;;;;;;0.03;0.03;;;;;;;;;;5015148;28;20113;-83
2021/10/20 03:28:22;;;;;;;0.30;0.30;;;;;;;;;;5015052;28;20429;-83
2021/10/20 03:30:48;;;;;;;0.10;0.10;;;;;;;;;;5015315;28;20442;-83
2021/10/20 03:33:13;;;;;;;0.77;0.77;;;;;;;;;;5015071;28;20084;-84
2021/10/20 03:35:39;;;;;;;0.45;0.32;;;;;;;;;;5014816;28;20030;-83
2021/10/20 03:38:06;;;;;;;0.25;0.25;;;;;;;;;;5015001;28;20026;-83
2021/10/20 03:40:32;;;;;;;0.00;0.00;;;;;;;;;;5014910;28;20033;-83
2021/10/20 03:42:57;;;;;;;0.00;0.00;;;;;;;;;;5014892;28;20033;-83
2021/10/20 03:45:22;;;;;;;1.02;0.30;;;;;;;;;;5014765;28;20050;-83
2021/10/20 03:47:48;;;;;;;0.08;0.08;;;;;;;;;;5014361;28;20061;-83
2021/10/20 03:50:13;;;;;;;0.10;0.10;;;;;;;;;;5014472;28;20092;-84
2021/10/20 03:52:38;;;;;;;0.45;0.43;;;;;;;;;;5014335;28;20108;-83
2021/10/20 03:55:04;;;;;;;1.25;1.15;;;;;;;;;;4997026;28;20169;-83
2021/10/20 03:57:34;;;;;;;0.43;0.30;;;;;;;;;;5014235;28;20033;-84
2021/10/20 03:59:59;;;;;;;0.05;0.05;;;;;;;;;;5014480;28;20026;-83
2021/10/20 04:02:24;;;;;;;0.03;0.03;;;;;;;;;;5014534;28;20030;-83
2021/10/20 04:04:50;;;;;;;0.60;0.57;;;;;;;;;;5014174;28;20448;-83
2021/10/20 04:07:15;;;;;;;0.00;0.00;;;;;;;;;;5014516;28;20026;-83
2021/10/20 04:09:41;;;;;;;1.00;0.38;;;;;;;;;;5014362;28;20030;-83
2021/10/20 04:12:06;;;;;;;0.00;0.00;;;;;;;;;;5014308;28;20475;-83
2021/10/20 04:14:31;;;;;;;0.00;0.00;;;;;;;;;;5014283;28;20038;-83
2021/10/20 04:16:56;;;;;;;0.08;0.08;;;;;;;;;;5014204;28;20030;-83
2021/10/20 04:19:22;;;;;;;0.08;0.08;;;;;;;;;;5014307;28;20041;-84
2021/10/20 04:21:47;;;;;;;0.30;0.30;;;;;;;;;;5014357;28;20100;-84
2021/10/20 04:24:12;;;;;;;0.30;0.30;;;;;;;;;;5013996;28;20092;-83
2021/10/20 04:26:38;;;;;;;0.47;0.47;;;;;;;;;;5014050;28;20100;-83
2021/10/20 04:29:03;;;;;;;0.00;0.00;;;;;;;;;;5014192;28;20018;-84
2021/10/20 04:31:28;;;;;;;0.00;0.00;;;;;;;;;;5014033;28;20104;-83
2021/10/20 04:33:53;;;;;;;0.00;0.00;;;;;;;;;;5013907;28;20046;-83
2021/10/20 04:36:19;;;;;;;0.43;0.43;;;;;;;;;;5013882;28;20101;-83
2021/10/20 04:38:44;;;;;;;0.00;0.00;;;;;;;;;;5013928;28;20029;-83
2021/10/20 04:41:09;;;;;;;0.00;0.00;;;;;;;;;;5013864;28;20038;-82
2021/10/20 04:43:35;;;;;;;0.10;0.10;;;;;;;;;;5013909;28;20105;-82
2021/10/20 04:46:01;;;;;;;0.00;0.00;;;;;;;;;;5013394;28;20049;-82
2021/10/20 04:48:26;;;;;;;1.50;0.52;;;;;;;;;;5013772;28;20083;-82
2021/10/20 04:50:51;;;;;;;0.57;0.57;;;;;;;;;;5013726;28;20179;-82
2021/10/20 04:53:17;;;;;;;4.20;0.95;;;;;;;;;;5013428;28;20045;-82
2021/10/20 04:55:42;;;;;;;0.38;0.32;;;;;;;;;;5013306;28;20049;-82
2021/10/20 04:58:08;;;;;;;1.98;0.75;;;;;;;;;;5013658;28;20109;-82
2021/10/20 05:00:34;;;;;;;0.03;0.03;;;;;;;;;;5013592;28;20450;-82
2021/10/20 05:02:59;;;;;;;0.13;0.13;;;;;;;;;;5013525;28;20033;-83
2021/10/20 05:05:24;;;;;;;0.00;0.00;;;;;;;;;;5013711;28;20029;-82
2021/10/20 05:07:53;;;;;;;0.15;0.10;;;;;;;;;;5013744;28;20062;-82
2021/10/20 05:10:18;;;;;;;0.52;0.45;;;;;;;;;;5013602;28;20072;-82
2021/10/20 05:12:44;;;;;;;0.30;0.30;;;;;;;;;;5013444;28;20057;-82
2021/10/20 05:15:11;;;;;;;0.20;0.20;;;;;;;;;;5014301;28;20065;-83
2021/10/20 05:17:37;;;;;;;0.63;0.55;;;;;;;;;;5017595;28;20034;-83
2021/10/20 05:20:02;;;;;;;0.00;0.00;;;;;;;;;;5017527;28;20029;-83
2021/10/20 05:22:28;;;;;;;0.20;0.20;;;;;;;;;;5017454;28;20120;-83
2021/10/20 05:24:53;;;;;;;0.10;0.10;;;;;;;;;;5017322;28;20034;-83
2021/10/20 05:27:18;;;;;;;0.50;0.43;;;;;;;;;;5017523;28;20529;-82
2021/10/20 05:29:43;;;;;;;0.30;0.30;;;;;;;;;;5017590;28;20030;-82
2021/10/20 05:32:09;;;;;;;0.25;0.25;;;;;;;;;;5017290;28;20080;-83
2021/10/20 05:34:34;;;;;;;0.65;0.30;;;;;;;;;;4999536;28;20367;-83
2021/10/20 05:36:59;;;;;;;0.00;0.00;;;;;;;;;;5017172;28;20485;-83
2021/10/20 05:39:24;;;;;;;0.10;0.10;;;;;;;;;;5016926;28;20113;-83
2021/10/20 05:41:50;;;;;;;0.63;0.15;;;;;;;;;;5017114;28;20025;-83
2021/10/20 05:44:15;;;;;;;0.52;0.52;;;;;;;;;;5017118;28;20030;-83
2021/10/20 05:46:41;;;;;;;0.65;0.25;;;;;;;;;;5017147;28;20045;-83
2021/10/20 05:49:06;;;;;;;0.40;0.40;;;;;;;;;;5016984;28;20546;-83
2021/10/20 05:51:31;;;;;;;0.00;0.00;;;;;;;;;;5017370;28;20084;-83
2021/10/20 05:53:57;;;;;;;0.20;0.20;;;;;;;;;;5016439;28;20107;-82
2021/10/20 05:56:22;;;;;;;5.38;1.75;;;;;;;;;;5017026;28;20026;-81
2021/10/20 05:58:47;;;;;;;0.00;0.00;;;;;;;;;;5016809;28;20105;-81
2021/10/20 06:01:13;;;;;;;0.00;0.00;;;;;;;;;;5016737;28;20117;-81
2021/10/20 06:03:38;;;;;;;2.63;1.17;;;;;;;;;;5016867;28;20025;-81
2021/10/20 06:06:03;;;;;;;0.00;0.00;;;;;;;;;;5016364;28;20034;-81
2021/10/20 06:08:28;;;;;;;0.00;0.00;;;;;;;;;;5016638;28;20084;-81
2021/10/20 06:10:54;;;;;;;0.00;0.00;;;;;;;;;;5016521;28;20470;-81
2021/10/20 06:13:19;;;;;;;0.10;0.10;;;;;;;;;;5016610;28;20037;-81
2021/10/20 06:15:44;;;;;;;0.00;0.00;;;;;;;;;;5016590;28;20029;-81
2021/10/20 06:18:10;;;;;;;0.00;0.00;;;;;;;;;;4998885;28;20454;-81
2021/10/20 06:20:35;;;;;;;0.52;0.52;;;;;;;;;;5016501;28;20049;-82
2021/10/20 06:23:00;;;;;;;0.00;0.00;;;;;;;;;;5016025;28;20033;-82
2021/10/20 06:25:25;;;;;;;0.13;0.13;;;;;;;;;;5016271;28;20025;-82
2021/10/20 06:27:51;;;;;;;0.40;0.40;;;;;;;;;;5014397;28;20022;-82
2021/10/20 06:30:16;;;;;;;0.20;0.20;;;;;;;;;;5016391;28;20044;-82
2021/10/20 06:32:43;;;;;;;0.38;0.38;;;;;;;;;;5016012;28;20026;-82
2021/10/20 06:35:10;;;;;;;0.10;0.10;;;;;;;;;;5016122;28;20041;-82
2021/10/20 06:37:36;;;;;;;0.00;0.00;;;;;;;;;;4998069;28;20474;-82
2021/10/20 06:40:01;;;;;;;0.20;0.15;;;;;;;;;;5015997;28;20060;-82
2021/10/20 06:42:27;;;;;;;0.10;0.10;;;;;;;;;;5016352;28;20038;-83
2021/10/20 06:44:54;;;;;;;0.47;0.47;;;;;;;;;;5015670;28;20034;-82
2021/10/20 06:47:20;;;;;;;3.30;1.02;;;;;;;;;;5015922;28;20025;-82
2021/10/20 06:49:45;;;;;;;0.00;0.00;;;;;;;;;;5015890;28;20022;-82
2021/10/20 06:52:10;;;;;;;0.20;0.20;;;;;;;;;;5015800;28;20497;-83
2021/10/20 06:54:35;;;;;;;0.10;0.10;;;;;;;;;;5015601;28;20038;-82
2021/10/20 06:57:01;;;;;;;3.85;1.00;;;;;;;;;;5015433;28;20033;-82
2021/10/20 06:59:26;;;;;;;0.00;0.00;;;;;;;;;;5015739;28;20041;-82
2021/10/20 07:01:51;;;;;;;0.00;0.00;;;;;;;;;;5014864;28;20374;-82
2021/10/20 07:04:16;;;;;;;0.00;0.00;;;;;;;;;;5014670;28;20064;-82
2021/10/20 07:06:42;;;;;;;0.28;0.28;;;;;;;;;;5015260;28;20034;-82
2021/10/20 07:09:07;;;;;;;0.00;0.00;;;;;;;;;;5015300;28;20022;-83
2021/10/20 07:11:33;;;;;;;0.00;0.00;;;;;;;;;;5015681;28;20516;-82
2021/10/20 07:13:59;;;;;;;0.00;0.00;;;;;;;;;;5015250;28;20054;-83
2021/10/20 07:16:24;;;;;;;0.00;0.00;;;;;;;;;;5015493;28;20037;-83
2021/10/20 07:18:50;;;;;;;0.00;0.00;;;;;;;;;;5015371;28;20452;-83
2021/10/20 07:21:16;;;;;;;1.85;0.47;;;;;;;;;;5015384;28;20045;-82
2021/10/20 07:23:41;;;;;;;3.40;1.75;;;;;;;;;;5015139;28;20374;-82
2021/10/20 07:26:06;;;;;;;0.00;0.00;;;;;;;;;;5014827;28;20057;-83
2021/10/20 07:28:32;;;;;;;0.00;0.00;;;;;;;;;;5014822;28;20040;-82
2021/10/20 07:30:57;;;;;;;0.00;0.00;;;;;;;;;;5015137;28;20018;-83
2021/10/20 07:33:22;;;;;;;0.15;0.15;;;;;;;;;;5013314;28;20449;-82
2021/10/20 07:35:47;;;;;;;0.00;0.00;;;;;;;;;;4995638;28;20041;-82
2021/10/20 07:38:13;;;;;;;0.00;0.00;;;;;;;;;;5009824;28;20025;-83
2021/10/20 07:40:38;;;;;;;0.00;0.00;;;;;;;;;;4993090;28;20035;-83
2021/10/20 07:43:03;;;;;;;0.20;0.20;;;;;;;;;;4993419;28;20471;-83
2021/10/20 07:45:28;;;;;;;0.32;0.32;;;;;;;;;;4990708;28;20057;-84
2021/10/20 07:47:54;;;;;;;0.00;0.00;;;;;;;;;;5011334;28;20030;-84
2021/10/20 07:50:20;;;;;;;0.00;0.00;;;;;;;;;;5011864;28;20034;-83
2021/10/20 07:52:48;;;;;;;0.00;0.00;;;;;;;;;;5010134;28;20041;-83
2021/10/20 07:55:15;;;;;;;0.00;0.00;;;;;;;;;;5009569;28;20030;-81
2021/10/20 07:57:40;;;;;;;0.00;0.00;;;;;;;;;;5012004;28;20078;-84
2021/10/20 08:00:06;;;;;;;0.17;0.17;;;;;;;;;;5010355;28;20533;-84
2021/10/20 08:02:31;;;;;;;0.30;0.30;;;;;;;;;;5010925;28;20096;-83
2021/10/20 08:04:57;;;;;;;0.00;0.00;;;;;;;;;;5012490;28;20450;-83
2021/10/20 08:07:22;;;;;;;1.08;0.90;;;;;;;;;;5012413;28;20026;-84
2021/10/20 08:09:48;;;;;;;0.00;0.00;;;;;;;;;;4997037;28;20034;-83
2021/10/20 08:12:13;;;;;;;0.00;0.00;;;;;;;;;;5006057;28;20041;-84
2021/10/20 08:14:41;;;;;;;0.13;0.10;;;;;;;;;;5007524;28;20120;-84
2021/10/20 08:17:08;;;;;;;0.95;0.32;;;;;;;;;;5009290;28;20083;-84
2021/10/20 08:19:33;;;;;;;0.30;0.30;;;;;;;;;;5008241;28;20037;-83
2021/10/20 08:21:58;;;;;;;1.13;0.55;;;;;;;;;;5010639;28;20034;-83
2021/10/20 08:24:23;;;;;;;0.40;0.40;;;;;;;;;;5010630;28;20026;-85
2021/10/20 08:26:49;;;;;;;0.00;0.00;;;;;;;;;;5010549;28;20125;-85
2021/10/20 08:29:14;;;;;;;0.15;0.15;;;;;;;;;;5011001;28;20026;-85
2021/10/20 08:31:39;;;;;;;0.10;0.10;;;;;;;;;;5010396;28;20026;-84
2021/10/20 08:34:04;;;;;;;0.10;0.10;;;;;;;;;;5010413;28;20482;-83
2021/10/20 08:36:30;;;;;;;0.08;0.08;;;;;;;;;;5010942;28;20026;-83
2021/10/20 08:38:55;;;;;;;0.00;0.00;;;;;;;;;;5010236;28;20073;-84
2021/10/20 08:41:20;;;;;;;0.22;0.22;;;;;;;;;;5010154;28;20485;-84
2021/10/20 08:43:46;;;;;;;0.00;0.00;;;;;;;;;;5009772;28;20033;-83
2021/10/20 08:46:12;;;;;;;0.10;0.10;;;;;;;;;;5010167;28;20045;-83
2021/10/20 08:48:37;;;;;;;0.00;0.00;;;;;;;;;;5010947;28;20117;-85
2021/10/20 08:51:06;;;;;;;0.00;0.00;;;;;;;;;;5007075;28;20025;-85
2021/10/20 08:53:31;;;;;;;0.25;0.25;;;;;;;;;;5006464;28;20070;-82
2021/10/20 08:55:59;;;;;;;0.13;0.13;;;;;;;;;;5008396;28;20034;-86
2021/10/20 08:58:25;;;;;;;0.10;0.10;;;;;;;;;;5009395;28;20057;-85
2021/10/20 09:00:50;;;;;;;0.00;0.00;;;;;;;;;;5009396;28;20419;-85
2021/10/20 09:03:16;;;;;;;0.00;0.00;;;;;;;;;;5009691;28;20478;-85
2021/10/20 09:05:42;;;;;;;0.45;0.45;;;;;;;;;;5009588;28;20030;-84
2021/10/20 09:08:07;;;;;;;0.10;0.10;;;;;;;;;;4992084;28;20030;-85
2021/10/20 09:10:33;;;;;;;0.05;0.05;;;;;;;;;;5009492;28;20462;-85
2021/10/20 09:12:59;;;;;;;0.00;0.00;;;;;;;;;;5008994;28;20026;-85
2021/10/20 09:15:25;;;;;;;0.88;0.45;;;;;;;;;;5009591;28;20169;-85
2021/10/20 09:17:53;;;;;;;0.00;0.00;;;;;;;;;;5009931;28;20045;-85
2021/10/20 09:20:24;;;;;;;0.00;0.00;;;;;;;;;;5010001;28;20022;-83
2021/10/20 09:22:57;;;;;;;0.00;0.00;;;;;;;;;;5009462;28;20030;-86
2021/10/20 09:25:23;;;;;;;0.00;0.00;;;;;;;;;;5009643;28;20474;-85
2021/10/20 09:27:50;;;;;;;0.00;0.00;;;;;;;;;;5008843;28;20056;-85
2021/10/20 09:30:15;;;;;;;0.28;0.28;;;;;;;;;;5008874;28;20597;-85
2021/10/20 09:32:41;;;;;;;0.65;0.65;;;;;;;;;;5009005;28;20116;-85
2021/10/20 09:35:08;;;;;;;0.00;0.00;;;;;;;;;;5009171;28;20029;-84
2021/10/20 09:37:33;;;;;;;1.75;0.47;;;;;;;;;;5009828;28;20038;-86
2021/10/20 09:40:06;;;;;;;1.38;0.77;;;;;;;;;;5008879;28;20044;-83
2021/10/20 09:42:42;;;;;;;0.00;0.00;;;;;;;;;;5009239;28;20024;-86
2021/10/20 09:45:07;;;;;;;0.20;0.20;;;;;;;;;;5008771;28;20034;-86
2021/10/20 09:47:32;;;;;;;0.00;0.00;;;;;;;;;;5009389;28;20041;-86
2021/10/20 09:49:59;;;;;;;1.48;1.38;;;;;;;;;;5008982;28;20058;-87
2021/10/20 09:52:25;;;;;;;0.00;0.00;;;;;;;;;;5009332;28;20037;-85
2021/10/20 09:54:51;;;;;;;1.02;0.55;;;;;;;;;;5009287;28;20042;-86
2021/10/20 09:57:16;;;;;;;0.45;0.38;;;;;;;;;;5009182;28;20022;-86
2021/10/20 09:59:42;;;;;;;0.00;0.00;;;;;;;;;;5007378;28;20026;-86
2021/10/20 10:02:11;;;;;;;1.65;1.17;;;;;;;;;;5010904;28;20038;-87
2021/10/20 10:04:40;;;;;;;0.50;0.50;;;;;;;;;;5012903;28;20028;-87
2021/10/20 10:07:05;;;;;;;0.10;0.10;;;;;;;;;;5013484;28;20113;-88
2021/10/20 10:09:31;;;;;;;0.00;0.00;;;;;;;;;;5013023;28;20109;-87
2021/10/20 10:11:58;;;;;;;0.00;0.00;;;;;;;;;;5012669;28;20360;-88
2021/10/20 10:14:29;;;;;;;0.00;0.00;;;;;;;;;;5012326;28;20044;-87
2021/10/20 10:16:59;;;;;;;0.00;0.00;;;;;;;;;;5012225;28;20044;-87
2021/10/20 10:19:26;;;;;;;0.03;0.03;;;;;;;;;;5012296;28;20053;-86
2021/10/20 10:21:52;;;;;;;3.20;1.48;;;;;;;;;;4998999;28;20394;-86
2021/10/20 10:24:18;;;;;;;0.45;0.45;;;;;;;;;;5001998;28;20021;-88
2021/10/20 10:27:04;;;;;;;0.00;0.00;;;;;;;;;;5005005;28;20033;-87
2021/10/20 10:29:29;;;;;;;0.55;0.47;;;;;;;;;;5001635;28;20517;-88
2021/10/20 10:31:59;;;;;;;13.77;1.15;;;;;;;;;;5000798;28;20030;-87
2021/10/20 10:34:26;;;;;;;0.00;0.00;;;;;;;;;;5003101;28;20121;-88
2021/10/20 10:36:54;;;;;;;0.77;0.75;;;;;;;;;;5002658;28;20030;-88
2021/10/20 10:39:20;;;;;;;2.55;0.85;;;;;;;;;;5000845;28;20138;-87
2021/10/20 10:41:46;;;;;;;0.22;0.22;;;;;;;;;;5003079;28;20050;-83
2021/10/20 10:44:16;;;;;;;0.15;0.15;;;;;;;;;;4997995;28;20489;-87
2021/10/20 10:46:47;;;;;;;0.15;0.15;;;;;;;;;;4995369;28;20038;-87
2021/10/20 10:49:26;;;;;;;0.00;0.00;;;;;;;;;;4975449;28;20438;-86
2021/10/20 10:52:10;;;;;;;0.28;0.28;;;;;;;;;;4992219;28;20026;-86
2021/10/20 10:54:39;;;;;;;0.10;0.10;;;;;;;;;;4992698;28;20066;-87
2021/10/20 10:57:10;;;;;;;1.38;1.10;;;;;;;;;;4992628;28;20022;-88
2021/10/20 10:59:35;;;;;;;0.30;0.30;;;;;;;;;;4992185;28;20030;-87
2021/10/20 11:02:01;;;;;;;0.08;0.08;;;;;;;;;;4992233;28;20469;-88
2021/10/20 11:04:34;;;;;;;1.55;0.30;;;;;;;;;;4989726;28;20018;-81
2021/10/20 11:07:00;;;;;;;0.00;0.00;;;;;;;;;;4991312;28;20129;-86
2021/10/20 11:09:34;;;;;;;0.13;0.13;;;;;;;;;;4992021;28;20057;-87
2021/10/20 11:12:00;;;;;;;0.65;0.38;;;;;;;;;;5001566;28;20454;-89
2021/10/20 11:14:26;;;;;;;0.28;0.25;;;;;;;;;;5010875;28;20042;-88
2021/10/20 11:17:06;;;;;;;0.10;0.10;;;;;;;;;;5011219;28;20523;-85
2021/10/20 11:19:32;;;;;;;9.27;1.50;;;;;;;;;;5011432;28;20061;-87
2021/10/20 11:22:00;;;;;;;1.88;1.65;;;;;;;;;;5011060;28;20033;-89
2021/10/20 11:24:25;;;;;;;0.10;0.10;;;;;;;;;;5009504;28;20413;-87
2021/10/20 11:26:54;;;;;;;0.00;0.00;;;;;;;;;;5012035;28;20032;-86
2021/10/20 11:29:20;;;;;;;7.82;2.20;;;;;;;;;;4993571;28;20037;-87
2021/10/20 11:31:50;;;;;;;0.65;0.65;;;;;;;;;;5006834;28;20036;-88
2021/10/20 11:34:19;;;;;;;4.32;0.45;;;;;;;;;;5010433;28;20469;-88
2021/10/20 11:36:45;;;;;;;0.05;0.05;;;;;;;;;;5011161;28;20169;-88
2021/10/20 11:39:11;;;;;;;0.10;0.10;;;;;;;;;;5011776;28;20030;-87
2021/10/20 11:41:37;;;;;;;0.08;0.08;;;;;;;;;;5010716;28;20032;-88
2021/10/20 11:44:03;;;;;;;0.10;0.10;;;;;;;;;;5010636;28;20052;-88
2021/10/20 11:46:33;;;;;;;0.00;0.00;;;;;;;;;;5011119;28;20058;-89
2021/10/20 11:48:59;;;;;;;0.10;0.10;;;;;;;;;;5010798;28;20042;-89
2021/10/20 11:51:25;;;;;;;1.38;1.27;;;;;;;;;;5011323;28;20141;-88
2021/10/20 11:53:50;;;;;;;0.47;0.47;;;;;;;;;;5010463;28;20069;-88
2021/10/20 11:56:16;;;;;;;0.22;0.22;;;;;;;;;;5010629;28;20030;-87
2021/10/20 11:58:43;;;;;;;0.00;0.00;;;;;;;;;;5009975;28;20515;-88
2021/10/20 12:01:08;;;;;;;9.40;2.17;;;;;;;;;;5011408;28;20029;-89
2021/10/20 12:03:34;;;;;;;0.52;0.47;;;;;;;;;;5010029;28;20022;-88
2021/10/20 12:06:03;;;;;;;0.00;0.00;;;;;;;;;;5007197;28;20041;-88
2021/10/20 12:08:30;;;;;;;0.00;0.00;;;;;;;;;;5010932;28;20025;-84
2021/10/20 12:10:55;;;;;;;0.00;0.00;;;;;;;;;;5011192;28;20026;-87
2021/10/20 12:13:20;;;;;;;0.40;0.22;;;;;;;;;;5010341;28;20133;-88
2021/10/20 12:15:47;;;;;;;26.00;0.57;;;;;;;;;;5010178;28;20092;-88
2021/10/20 12:18:13;;;;;;;0.57;0.52;;;;;;;;;;5010387;28;20088;-88
2021/10/20 12:20:38;;;;;;;0.30;0.30;;;;;;;;;;5009895;28;20033;-87
2021/10/20 12:23:05;;;;;;;0.10;0.10;;;;;;;;;;5030390;28;20021;-88
2021/10/20 12:25:33;;;;;;;0.20;0.17;;;;;;;;;;5029132;28;20021;-86
2021/10/20 12:27:58;;;;;;;0.38;0.38;;;;;;;;;;5029014;28;20040;-88
2021/10/20 12:30:23;;;;;;;0.28;0.28;;;;;;;;;;5029357;28;20025;-89
2021/10/20 12:32:48;;;;;;;0.32;0.25;;;;;;;;;;5028938;28;20033;-89
2021/10/20 12:35:15;;;;;;;0.00;0.00;;;;;;;;;;5029107;28;20544;-87
2021/10/20 12:37:41;;;;;;;0.00;0.00;;;;;;;;;;5030190;28;20027;-87
2021/10/20 12:40:08;;;;;;;1.08;0.55;;;;;;;;;;5029463;28;20052;-87
2021/10/20 12:42:56;;;;;;;5.07;0.65;;;;;;;;;;5006038;28;20070;-87
2021/10/20 12:45:22;;;;;;;0.10;0.10;;;;;;;;;;5007833;28;20045;-86
2021/10/20 12:47:51;;;;;;;13.60;1.63;;;;;;;;;;5008158;28;20037;-83
2021/10/20 12:50:18;;;;;;;0.00;0.00;;;;;;;;;;5009374;28;20025;-86
2021/10/20 12:52:44;;;;;;;0.00;0.00;;;;;;;;;;5008970;28;20041;-86
2021/10/20 12:55:11;;;;;;;0.10;0.10;;;;;;;;;;5008328;28;20113;-87
2021/10/20 12:57:38;;;;;;;0.30;0.30;;;;;;;;;;5007891;28;20053;-85
2021/10/20 13:00:14;;;;;;;0.08;0.08;;;;;;;;;;5008429;28;20044;-88
2021/10/20 13:02:39;;;;;;;0.00;0.00;;;;;;;;;;5009699;28;20033;-86
2021/10/20 13:05:06;;;;;;;0.65;0.52;;;;;;;;;;5008898;28;20045;-86
2021/10/20 13:07:31;;;;;;;0.20;0.20;;;;;;;;;;5009022;28;20552;-84
2021/10/20 13:09:56;;;;;;;0.00;0.00;;;;;;;;;;5010000;28;20022;-85
2021/10/20 13:12:21;;;;;;;0.68;0.55;;;;;;;;;;5009964;28;20029;-86
2021/10/20 13:14:47;;;;;;;0.25;0.22;;;;;;;;;;5008919;28;20053;-87
2021/10/20 13:17:12;;;;;;;0.13;0.13;;;;;;;;;;5009117;28;20417;-86
2021/10/20 13:19:37;;;;;;;0.10;0.10;;;;;;;;;;5009078;28;20030;-85
2021/10/20 13:22:04;;;;;;;0.00;0.00;;;;;;;;;;5009654;28;20499;-87
2021/10/20 13:24:30;;;;;;;0.63;0.63;;;;;;;;;;5008887;28;20471;-86
2021/10/20 13:26:55;;;;;;;0.08;0.08;;;;;;;;;;5009116;28;20030;-87
2021/10/20 13:29:20;;;;;;;1.35;0.77;;;;;;;;;;5009205;28;20041;-87
2021/10/20 13:31:46;;;;;;;0.25;0.25;;;;;;;;;;5008637;28;20032;-87
2021/10/20 13:34:11;;;;;;;0.40;0.22;;;;;;;;;;5008481;28;20044;-82
2021/10/20 13:36:37;;;;;;;1.20;0.22;;;;;;;;;;5010737;28;20100;-85
2021/10/20 13:39:03;;;;;;;0.00;0.00;;;;;;;;;;5011691;28;20021;-85
2021/10/20 13:41:29;;;;;;;1.48;1.38;;;;;;;;;;5012215;28;20045;-87
2021/10/20 13:43:54;;;;;;;0.70;0.63;;;;;;;;;;5012857;28;20026;-85
2021/10/20 13:46:19;;;;;;;0.00;0.00;;;;;;;;;;5012462;28;20446;-85
2021/10/20 13:48:45;;;;;;;0.00;0.00;;;;;;;;;;5013574;28;20029;-85
2021/10/20 13:51:10;;;;;;;0.13;0.13;;;;;;;;;;5012503;28;20054;-85
2021/10/20 13:53:35;;;;;;;0.22;0.20;;;;;;;;;;5012810;28;20114;-86
2021/10/20 13:56:00;;;;;;;0.10;0.10;;;;;;;;;;5011418;28;20088;-86
2021/10/20 13:58:26;;;;;;;1.20;1.10;;;;;;;;;;5010731;28;20030;-86
2021/10/20 14:00:51;;;;;;;0.00;0.00;;;;;;;;;;5013421;28;20034;-86
2021/10/20 14:03:16;;;;;;;0.45;0.45;;;;;;;;;;5012555;28;20029;-87
2021/10/20 14:05:42;;;;;;;4.72;0.98;;;;;;;;;;5012107;28;20072;-86
2021/10/20 14:08:07;;;;;;;0.35;0.35;;;;;;;;;;5012177;28;20041;-86
2021/10/20 14:10:32;;;;;;;0.00;0.00;;;;;;;;;;5012690;28;20022;-87
2021/10/20 14:12:58;;;;;;;8.57;1.08;;;;;;;;;;5013703;28;20030;-86
2021/10/20 14:15:23;;;;;;;0.40;0.40;;;;;;;;;;5012897;28;20072;-87
2021/10/20 14:17:48;;;;;;;0.10;0.10;;;;;;;;;;5012448;28;20030;-89
2021/10/20 14:20:14;;;;;;;0.15;0.15;;;;;;;;;;5012135;28;20083;-86
2021/10/20 14:22:39;;;;;;;1.23;1.13;;;;;;;;;;5011956;28;20026;-86
2021/10/20 14:25:05;;;;;;;0.10;0.10;;;;;;;;;;5012571;28;20034;-87
2021/10/20 14:27:31;;;;;;;0.47;0.32;;;;;;;;;;5012697;28;20030;-88
2021/10/20 14:29:56;;;;;;;1.30;1.23;;;;;;;;;;5011705;28;20018;-86
2021/10/20 14:32:22;;;;;;;0.52;0.35;;;;;;;;;;5011800;28;20489;-88
2021/10/20 14:34:48;;;;;;;0.85;0.57;;;;;;;;;;4993471;28;20444;-87
2021/10/20 14:37:13;;;;;;;0.00;0.00;;;;;;;;;;5011567;28;20041;-86